sensor_id;sensor_type;location;lat;lon;timestamp;P1;durP1;ratioP1;P2;durP2;ratioP2
18899;SDS011;9582;52.018;6.306;2023-08-06T00:00:51;18.27;;;14.77;;
18899;SDS011;9582;52.018;6.306;2023-08-06T00:03:18;18.58;;;14.60;;
18899;SDS011;9582;52.018;6.306;2023-08-06T00:05:44;18.52;;;15.52;;
18899;SDS011;9582;52.018;6.306;2023-08-06T00:08:12;16.52;;;14.45;;
18899;SDS011;9582;52.018;6.306;2023-08-06T00:10:39;17.92;;;14.52;;
18899;SDS011;9582;52.018;6.306;2023-08-06T00:13:05;20.00;;;15.98;;
18899;SDS011;9582;52.018;6.306;2023-08-06T00:15:32;18.92;;;14.85;;
18899;SDS011;9582;52.018;6.306;2023-08-06T00:17:58;24.67;;;15.52;;
18899;SDS011;9582;52.018;6.306;2023-08-06T00:20:25;20.02;;;14.50;;
18899;SDS011;9582;52.018;6.306;2023-08-06T00:22:51;22.55;;;15.70;;
18899;SDS011;9582;52.018;6.306;2023-08-06T00:25:19;20.90;;;15.27;;
18899;SDS011;9582;52.018;6.306;2023-08-06T00:27:45;19.48;;;14.82;;
18899;SDS011;9582;52.018;6.306;2023-08-06T00:30:12;20.52;;;15.13;;
18899;SDS011;9582;52.018;6.306;2023-08-06T00:32:38;19.25;;;15.80;;
18899;SDS011;9582;52.018;6.306;2023-08-06T00:35:05;21.30;;;15.40;;
18899;SDS011;9582;52.018;6.306;2023-08-06T00:37:33;23.48;;;16.42;;
18899;SDS011;9582;52.018;6.306;2023-08-06T00:39:59;21.83;;;16.35;;
18899;SDS011;9582;52.018;6.306;2023-08-06T00:42:27;18.38;;;14.75;;
18899;SDS011;9582;52.018;6.306;2023-08-06T00:44:53;21.20;;;15.25;;
18899;SDS011;9582;52.018;6.306;2023-08-06T00:47:20;18.45;;;14.35;;
18899;SDS011;9582;52.018;6.306;2023-08-06T00:49:46;18.73;;;14.77;;
18899;SDS011;9582;52.018;6.306;2023-08-06T00:52:13;18.40;;;14.50;;
18899;SDS011;9582;52.018;6.306;2023-08-06T00:54:40;20.58;;;14.95;;
18899;SDS011;9582;52.018;6.306;2023-08-06T00:57:07;18.63;;;14.90;;
18899;SDS011;9582;52.018;6.306;2023-08-06T00:59:36;20.83;;;14.60;;
18899;SDS011;9582;52.018;6.306;2023-08-06T01:02:03;20.67;;;14.82;;
18899;SDS011;9582;52.018;6.306;2023-08-06T01:04:30;20.88;;;15.13;;
18899;SDS011;9582;52.018;6.306;2023-08-06T01:07:01;18.13;;;14.98;;
18899;SDS011;9582;52.018;6.306;2023-08-06T01:09:35;20.83;;;14.30;;
18899;SDS011;9582;52.018;6.306;2023-08-06T01:12:13;17.73;;;15.30;;
18899;SDS011;9582;52.018;6.306;2023-08-06T01:14:52;18.42;;;14.65;;
18899;SDS011;9582;52.018;6.306;2023-08-06T01:17:24;22.52;;;15.80;;
18899;SDS011;9582;52.018;6.306;2023-08-06T01:19:51;25.15;;;15.93;;
18899;SDS011;9582;52.018;6.306;2023-08-06T01:22:19;18.38;;;15.73;;
18899;SDS011;9582;52.018;6.306;2023-08-06T01:24:46;18.13;;;13.63;;
18899;SDS011;9582;52.018;6.306;2023-08-06T01:27:17;20.65;;;15.25;;
18899;SDS011;9582;52.018;6.306;2023-08-06T01:29:54;19.60;;;14.85;;
18899;SDS011;9582;52.018;6.306;2023-08-06T01:32:28;18.88;;;14.57;;
18899;SDS011;9582;52.018;6.306;2023-08-06T01:34:58;21.08;;;14.18;;
18899;SDS011;9582;52.018;6.306;2023-08-06T01:37:27;20.98;;;15.32;;
18899;SDS011;9582;52.018;6.306;2023-08-06T01:39:54;19.83;;;15.32;;
18899;SDS011;9582;52.018;6.306;2023-08-06T01:42:21;17.92;;;14.95;;
18899;SDS011;9582;52.018;6.306;2023-08-06T01:44:47;22.40;;;16.80;;
18899;SDS011;9582;52.018;6.306;2023-08-06T01:47:14;26.10;;;16.77;;
18899;SDS011;9582;52.018;6.306;2023-08-06T01:49:40;23.83;;;16.60;;
18899;SDS011;9582;52.018;6.306;2023-08-06T01:52:07;21.30;;;15.65;;
18899;SDS011;9582;52.018;6.306;2023-08-06T01:54:35;21.95;;;15.90;;
18899;SDS011;9582;52.018;6.306;2023-08-06T01:57:01;25.05;;;17.25;;
18899;SDS011;9582;52.018;6.306;2023-08-06T01:59:28;21.02;;;15.38;;
18899;SDS011;9582;52.018;6.306;2023-08-06T02:01:54;22.65;;;16.20;;
18899;SDS011;9582;52.018;6.306;2023-08-06T02:04:21;23.20;;;16.33;;
18899;SDS011;9582;52.018;6.306;2023-08-06T02:06:47;23.20;;;16.20;;
18899;SDS011;9582;52.018;6.306;2023-08-06T02:09:14;25.13;;;15.98;;
18899;SDS011;9582;52.018;6.306;2023-08-06T02:11:42;22.70;;;17.23;;
18899;SDS011;9582;52.018;6.306;2023-08-06T02:14:08;27.90;;;17.17;;
18899;SDS011;9582;52.018;6.306;2023-08-06T02:16:35;22.27;;;17.50;;
18899;SDS011;9582;52.018;6.306;2023-08-06T02:19:01;24.25;;;16.83;;
18899;SDS011;9582;52.018;6.306;2023-08-06T02:21:28;28.10;;;17.88;;
18899;SDS011;9582;52.018;6.306;2023-08-06T02:23:54;24.67;;;16.33;;
18899;SDS011;9582;52.018;6.306;2023-08-06T02:26:21;26.08;;;17.63;;
18899;SDS011;9582;52.018;6.306;2023-08-06T02:28:49;30.10;;;18.88;;
18899;SDS011;9582;52.018;6.306;2023-08-06T02:31:16;35.85;;;22.98;;
18899;SDS011;9582;52.018;6.306;2023-08-06T02:33:42;27.77;;;18.50;;
18899;SDS011;9582;52.018;6.306;2023-08-06T02:36:09;28.90;;;18.27;;
18899;SDS011;9582;52.018;6.306;2023-08-06T02:38:36;31.45;;;19.05;;
18899;SDS011;9582;52.018;6.306;2023-08-06T02:41:03;25.85;;;17.42;;
18899;SDS011;9582;52.018;6.306;2023-08-06T02:43:30;28.48;;;17.75;;
18899;SDS011;9582;52.018;6.306;2023-08-06T02:45:58;24.20;;;16.88;;
18899;SDS011;9582;52.018;6.306;2023-08-06T02:48:25;27.88;;;17.83;;
18899;SDS011;9582;52.018;6.306;2023-08-06T02:50:52;26.25;;;17.38;;
18899;SDS011;9582;52.018;6.306;2023-08-06T02:53:18;30.95;;;18.55;;
18899;SDS011;9582;52.018;6.306;2023-08-06T02:55:47;26.08;;;17.40;;
18899;SDS011;9582;52.018;6.306;2023-08-06T02:58:17;25.35;;;17.35;;
18899;SDS011;9582;52.018;6.306;2023-08-06T03:01:02;25.67;;;16.92;;
18899;SDS011;9582;52.018;6.306;2023-08-06T03:03:34;24.60;;;16.95;;
18899;SDS011;9582;52.018;6.306;2023-08-06T03:06:03;26.40;;;17.35;;
18899;SDS011;9582;52.018;6.306;2023-08-06T03:08:37;29.90;;;17.80;;
18899;SDS011;9582;52.018;6.306;2023-08-06T03:11:04;26.58;;;17.75;;
18899;SDS011;9582;52.018;6.306;2023-08-06T03:13:30;26.20;;;17.15;;
18899;SDS011;9582;52.018;6.306;2023-08-06T03:15:58;29.92;;;17.75;;
18899;SDS011;9582;52.018;6.306;2023-08-06T03:18:28;25.40;;;16.60;;
18899;SDS011;9582;52.018;6.306;2023-08-06T03:20:56;27.55;;;16.63;;
18899;SDS011;9582;52.018;6.306;2023-08-06T03:23:26;23.90;;;17.02;;
18899;SDS011;9582;52.018;6.306;2023-08-06T03:25:53;26.20;;;16.52;;
18899;SDS011;9582;52.018;6.306;2023-08-06T03:28:19;24.55;;;16.70;;
18899;SDS011;9582;52.018;6.306;2023-08-06T03:30:47;24.75;;;16.30;;
18899;SDS011;9582;52.018;6.306;2023-08-06T03:33:14;24.27;;;16.20;;
18899;SDS011;9582;52.018;6.306;2023-08-06T03:35:43;21.20;;;15.32;;
18899;SDS011;9582;52.018;6.306;2023-08-06T03:38:10;23.48;;;15.63;;
18899;SDS011;9582;52.018;6.306;2023-08-06T03:40:37;26.55;;;16.30;;
18899;SDS011;9582;52.018;6.306;2023-08-06T03:43:03;24.52;;;16.48;;
18899;SDS011;9582;52.018;6.306;2023-08-06T03:45:30;24.67;;;16.50;;
18899;SDS011;9582;52.018;6.306;2023-08-06T03:47:56;27.02;;;17.55;;
18899;SDS011;9582;52.018;6.306;2023-08-06T03:50:23;24.77;;;17.35;;
18899;SDS011;9582;52.018;6.306;2023-08-06T03:52:51;22.48;;;16.73;;
18899;SDS011;9582;52.018;6.306;2023-08-06T03:55:17;26.65;;;16.88;;
18899;SDS011;9582;52.018;6.306;2023-08-06T03:57:44;25.63;;;17.65;;
18899;SDS011;9582;52.018;6.306;2023-08-06T04:00:11;27.95;;;17.77;;
18899;SDS011;9582;52.018;6.306;2023-08-06T04:02:41;29.50;;;18.98;;
18899;SDS011;9582;52.018;6.306;2023-08-06T04:05:11;25.52;;;17.25;;
18899;SDS011;9582;52.018;6.306;2023-08-06T04:07:38;25.65;;;18.02;;
18899;SDS011;9582;52.018;6.306;2023-08-06T04:10:06;31.30;;;19.63;;
18899;SDS011;9582;52.018;6.306;2023-08-06T04:12:33;29.48;;;18.83;;
18899;SDS011;9582;52.018;6.306;2023-08-06T04:15:03;33.58;;;20.08;;
18899;SDS011;9582;52.018;6.306;2023-08-06T04:17:30;31.27;;;17.40;;
18899;SDS011;9582;52.018;6.306;2023-08-06T04:19:57;29.85;;;19.42;;
18899;SDS011;9582;52.018;6.306;2023-08-06T04:22:24;37.38;;;21.20;;
18899;SDS011;9582;52.018;6.306;2023-08-06T04:24:51;31.90;;;19.27;;
18899;SDS011;9582;52.018;6.306;2023-08-06T04:27:19;31.83;;;20.63;;
18899;SDS011;9582;52.018;6.306;2023-08-06T04:29:46;35.47;;;20.65;;
18899;SDS011;9582;52.018;6.306;2023-08-06T04:32:14;29.88;;;19.42;;
18899;SDS011;9582;52.018;6.306;2023-08-06T04:34:46;33.13;;;21.23;;
18899;SDS011;9582;52.018;6.306;2023-08-06T04:37:13;36.22;;;20.90;;
18899;SDS011;9582;52.018;6.306;2023-08-06T04:39:40;31.83;;;20.38;;
18899;SDS011;9582;52.018;6.306;2023-08-06T04:42:06;33.97;;;21.25;;
18899;SDS011;9582;52.018;6.306;2023-08-06T04:44:34;35.42;;;19.73;;
18899;SDS011;9582;52.018;6.306;2023-08-06T04:47:01;31.40;;;19.30;;
18899;SDS011;9582;52.018;6.306;2023-08-06T04:49:27;34.35;;;19.15;;
18899;SDS011;9582;52.018;6.306;2023-08-06T04:51:54;28.17;;;17.98;;
18899;SDS011;9582;52.018;6.306;2023-08-06T04:54:20;34.70;;;19.00;;
18899;SDS011;9582;52.018;6.306;2023-08-06T04:56:46;32.60;;;19.50;;
18899;SDS011;9582;52.018;6.306;2023-08-06T04:59:13;32.63;;;18.25;;
18899;SDS011;9582;52.018;6.306;2023-08-06T05:01:41;27.52;;;17.42;;
18899;SDS011;9582;52.018;6.306;2023-08-06T05:04:07;24.80;;;16.42;;
18899;SDS011;9582;52.018;6.306;2023-08-06T05:06:34;22.15;;;16.63;;
18899;SDS011;9582;52.018;6.306;2023-08-06T05:09:03;28.40;;;17.98;;
18899;SDS011;9582;52.018;6.306;2023-08-06T05:11:29;22.40;;;16.38;;
18899;SDS011;9582;52.018;6.306;2023-08-06T05:13:56;22.73;;;15.93;;
18899;SDS011;9582;52.018;6.306;2023-08-06T05:16:23;26.67;;;16.75;;
18899;SDS011;9582;52.018;6.306;2023-08-06T05:18:51;22.45;;;14.63;;
18899;SDS011;9582;52.018;6.306;2023-08-06T05:21:17;24.00;;;16.55;;
18899;SDS011;9582;52.018;6.306;2023-08-06T05:23:44;25.60;;;17.45;;
18899;SDS011;9582;52.018;6.306;2023-08-06T05:26:10;25.88;;;17.83;;
18899;SDS011;9582;52.018;6.306;2023-08-06T05:28:39;24.55;;;18.05;;
18899;SDS011;9582;52.018;6.306;2023-08-06T05:31:06;23.08;;;17.48;;
18899;SDS011;9582;52.018;6.306;2023-08-06T05:33:33;24.17;;;16.58;;
18899;SDS011;9582;52.018;6.306;2023-08-06T05:36:01;18.00;;;13.95;;
18899;SDS011;9582;52.018;6.306;2023-08-06T05:38:27;24.63;;;18.05;;
18899;SDS011;9582;52.018;6.306;2023-08-06T05:40:54;22.08;;;16.67;;
18899;SDS011;9582;52.018;6.306;2023-08-06T05:43:21;20.30;;;14.60;;
18899;SDS011;9582;52.018;6.306;2023-08-06T05:45:49;19.90;;;16.10;;
18899;SDS011;9582;52.018;6.306;2023-08-06T05:48:15;20.83;;;15.35;;
18899;SDS011;9582;52.018;6.306;2023-08-06T05:50:42;19.60;;;15.80;;
18899;SDS011;9582;52.018;6.306;2023-08-06T05:53:10;17.65;;;15.05;;
18899;SDS011;9582;52.018;6.306;2023-08-06T05:55:36;18.33;;;14.82;;
18899;SDS011;9582;52.018;6.306;2023-08-06T05:58:03;22.15;;;15.85;;
18899;SDS011;9582;52.018;6.306;2023-08-06T06:00:29;19.27;;;15.57;;
18899;SDS011;9582;52.018;6.306;2023-08-06T06:02:56;19.17;;;16.00;;
18899;SDS011;9582;52.018;6.306;2023-08-06T06:05:22;22.23;;;16.90;;
18899;SDS011;9582;52.018;6.306;2023-08-06T06:07:49;20.17;;;16.27;;
18899;SDS011;9582;52.018;6.306;2023-08-06T06:10:16;18.15;;;15.32;;
18899;SDS011;9582;52.018;6.306;2023-08-06T06:12:43;17.35;;;14.15;;
18899;SDS011;9582;52.018;6.306;2023-08-06T06:15:10;20.75;;;15.63;;
18899;SDS011;9582;52.018;6.306;2023-08-06T06:17:36;16.25;;;13.05;;
18899;SDS011;9582;52.018;6.306;2023-08-06T06:20:03;18.92;;;14.35;;
18899;SDS011;9582;52.018;6.306;2023-08-06T06:22:30;18.75;;;14.38;;
18899;SDS011;9582;52.018;6.306;2023-08-06T06:24:57;18.88;;;15.02;;
18899;SDS011;9582;52.018;6.306;2023-08-06T06:27:25;18.45;;;14.77;;
18899;SDS011;9582;52.018;6.306;2023-08-06T06:29:51;17.65;;;15.75;;
18899;SDS011;9582;52.018;6.306;2023-08-06T06:32:19;16.77;;;15.05;;
18899;SDS011;9582;52.018;6.306;2023-08-06T06:34:46;18.23;;;15.38;;
18899;SDS011;9582;52.018;6.306;2023-08-06T06:37:12;17.70;;;15.68;;
18899;SDS011;9582;52.018;6.306;2023-08-06T06:39:39;16.98;;;15.07;;
18899;SDS011;9582;52.018;6.306;2023-08-06T06:42:06;18.52;;;15.52;;
18899;SDS011;9582;52.018;6.306;2023-08-06T06:44:38;21.27;;;16.92;;
18899;SDS011;9582;52.018;6.306;2023-08-06T06:47:05;17.75;;;15.43;;
18899;SDS011;9582;52.018;6.306;2023-08-06T06:49:31;16.75;;;15.05;;
18899;SDS011;9582;52.018;6.306;2023-08-06T06:51:58;20.58;;;16.20;;
18899;SDS011;9582;52.018;6.306;2023-08-06T06:54:24;19.50;;;16.67;;
18899;SDS011;9582;52.018;6.306;2023-08-06T06:56:51;19.23;;;16.58;;
18899;SDS011;9582;52.018;6.306;2023-08-06T06:59:17;17.85;;;16.02;;
18899;SDS011;9582;52.018;6.306;2023-08-06T07:01:45;20.00;;;16.45;;
18899;SDS011;9582;52.018;6.306;2023-08-06T07:04:11;18.42;;;15.50;;
18899;SDS011;9582;52.018;6.306;2023-08-06T07:06:38;19.52;;;16.52;;
18899;SDS011;9582;52.018;6.306;2023-08-06T07:09:04;18.33;;;16.40;;
18899;SDS011;9582;52.018;6.306;2023-08-06T07:11:31;17.13;;;15.32;;
18899;SDS011;9582;52.018;6.306;2023-08-06T07:13:57;17.75;;;15.93;;
18899;SDS011;9582;52.018;6.306;2023-08-06T07:16:24;20.98;;;18.98;;
18899;SDS011;9582;52.018;6.306;2023-08-06T07:18:52;20.48;;;18.02;;
18899;SDS011;9582;52.018;6.306;2023-08-06T07:21:20;21.35;;;17.20;;
18899;SDS011;9582;52.018;6.306;2023-08-06T07:23:46;19.42;;;17.55;;
18899;SDS011;9582;52.018;6.306;2023-08-06T07:26:14;21.00;;;18.90;;
18899;SDS011;9582;52.018;6.306;2023-08-06T07:28:41;21.83;;;18.25;;
18899;SDS011;9582;52.018;6.306;2023-08-06T07:31:07;21.25;;;19.13;;
18899;SDS011;9582;52.018;6.306;2023-08-06T07:33:35;22.63;;;20.23;;
18899;SDS011;9582;52.018;6.306;2023-08-06T07:36:08;22.38;;;18.73;;
18899;SDS011;9582;52.018;6.306;2023-08-06T07:38:35;22.17;;;19.58;;
18899;SDS011;9582;52.018;6.306;2023-08-06T07:41:02;20.20;;;18.10;;
18899;SDS011;9582;52.018;6.306;2023-08-06T07:43:29;23.73;;;19.95;;
18899;SDS011;9582;52.018;6.306;2023-08-06T07:45:57;21.42;;;19.10;;
18899;SDS011;9582;52.018;6.306;2023-08-06T07:48:24;21.33;;;19.05;;
18899;SDS011;9582;52.018;6.306;2023-08-06T07:50:51;22.20;;;19.25;;
18899;SDS011;9582;52.018;6.306;2023-08-06T07:53:20;20.48;;;18.30;;
18899;SDS011;9582;52.018;6.306;2023-08-06T07:55:48;19.95;;;17.88;;
18899;SDS011;9582;52.018;6.306;2023-08-06T07:58:15;18.95;;;17.02;;
18899;SDS011;9582;52.018;6.306;2023-08-06T08:00:42;20.58;;;18.48;;
18899;SDS011;9582;52.018;6.306;2023-08-06T08:03:10;20.38;;;18.38;;
18899;SDS011;9582;52.018;6.306;2023-08-06T08:05:37;18.17;;;16.35;;
18899;SDS011;9582;52.018;6.306;2023-08-06T08:08:04;19.20;;;17.23;;
18899;SDS011;9582;52.018;6.306;2023-08-06T08:10:31;18.30;;;16.40;;
18899;SDS011;9582;52.018;6.306;2023-08-06T08:12:58;18.02;;;16.13;;
18899;SDS011;9582;52.018;6.306;2023-08-06T08:15:25;18.98;;;17.17;;
18899;SDS011;9582;52.018;6.306;2023-08-06T08:17:52;16.98;;;15.20;;
18899;SDS011;9582;52.018;6.306;2023-08-06T08:20:18;17.80;;;15.90;;
18899;SDS011;9582;52.018;6.306;2023-08-06T08:22:48;15.15;;;13.65;;
18899;SDS011;9582;52.018;6.306;2023-08-06T08:25:15;15.43;;;13.93;;
18899;SDS011;9582;52.018;6.306;2023-08-06T08:27:43;13.48;;;12.05;;
18899;SDS011;9582;52.018;6.306;2023-08-06T08:30:10;15.23;;;13.82;;
18899;SDS011;9582;52.018;6.306;2023-08-06T08:32:37;14.23;;;12.85;;
18899;SDS011;9582;52.018;6.306;2023-08-06T08:35:03;13.40;;;12.10;;
18899;SDS011;9582;52.018;6.306;2023-08-06T08:37:30;13.13;;;11.77;;
18899;SDS011;9582;52.018;6.306;2023-08-06T08:39:57;13.20;;;11.60;;
18899;SDS011;9582;52.018;6.306;2023-08-06T08:42:23;11.73;;;10.68;;
18899;SDS011;9582;52.018;6.306;2023-08-06T08:44:51;12.73;;;11.52;;
18899;SDS011;9582;52.018;6.306;2023-08-06T08:47:19;11.98;;;10.77;;
18899;SDS011;9582;52.018;6.306;2023-08-06T08:49:46;12.10;;;10.98;;
18899;SDS011;9582;52.018;6.306;2023-08-06T08:52:15;12.02;;;10.85;;
18899;SDS011;9582;52.018;6.306;2023-08-06T08:54:43;10.35;;;9.43;;
18899;SDS011;9582;52.018;6.306;2023-08-06T08:57:10;11.00;;;9.93;;
18899;SDS011;9582;52.018;6.306;2023-08-06T08:59:37;10.85;;;9.35;;
18899;SDS011;9582;52.018;6.306;2023-08-06T09:02:04;10.90;;;9.52;;
18899;SDS011;9582;52.018;6.306;2023-08-06T09:04:34;11.10;;;10.00;;
18899;SDS011;9582;52.018;6.306;2023-08-06T09:07:01;9.98;;;9.07;;
18899;SDS011;9582;52.018;6.306;2023-08-06T09:09:30;9.20;;;8.30;;
18899;SDS011;9582;52.018;6.306;2023-08-06T09:11:59;9.57;;;8.68;;
18899;SDS011;9582;52.018;6.306;2023-08-06T09:14:27;9.98;;;8.85;;
18899;SDS011;9582;52.018;6.306;2023-08-06T09:16:54;9.25;;;8.45;;
18899;SDS011;9582;52.018;6.306;2023-08-06T09:19:22;10.73;;;9.48;;
18899;SDS011;9582;52.018;6.306;2023-08-06T09:21:50;9.75;;;8.80;;
18899;SDS011;9582;52.018;6.306;2023-08-06T09:24:17;9.82;;;8.40;;
18899;SDS011;9582;52.018;6.306;2023-08-06T09:26:44;7.45;;;6.85;;
18899;SDS011;9582;52.018;6.306;2023-08-06T09:29:11;9.90;;;7.90;;
18899;SDS011;9582;52.018;6.306;2023-08-06T09:31:41;9.23;;;8.15;;
18899;SDS011;9582;52.018;6.306;2023-08-06T09:34:12;9.02;;;8.13;;
18899;SDS011;9582;52.018;6.306;2023-08-06T09:36:43;9.68;;;8.73;;
18899;SDS011;9582;52.018;6.306;2023-08-06T09:39:13;10.30;;;9.30;;
18899;SDS011;9582;52.018;6.306;2023-08-06T09:41:40;9.32;;;8.52;;
18899;SDS011;9582;52.018;6.306;2023-08-06T09:44:12;10.50;;;9.52;;
18899;SDS011;9582;52.018;6.306;2023-08-06T09:46:42;10.02;;;8.95;;
18899;SDS011;9582;52.018;6.306;2023-08-06T09:49:09;8.88;;;8.07;;
18899;SDS011;9582;52.018;6.306;2023-08-06T09:51:36;9.52;;;8.63;;
18899;SDS011;9582;52.018;6.306;2023-08-06T09:54:06;8.45;;;7.10;;
18899;SDS011;9582;52.018;6.306;2023-08-06T09:56:34;7.00;;;6.13;;
18899;SDS011;9582;52.018;6.306;2023-08-06T09:59:03;7.75;;;6.97;;
18899;SDS011;9582;52.018;6.306;2023-08-06T10:01:31;8.32;;;7.53;;
18899;SDS011;9582;52.018;6.306;2023-08-06T10:03:58;9.85;;;8.43;;
18899;SDS011;9582;52.018;6.306;2023-08-06T10:06:26;9.48;;;8.45;;
18899;SDS011;9582;52.018;6.306;2023-08-06T10:08:54;10.63;;;9.52;;
18899;SDS011;9582;52.018;6.306;2023-08-06T10:11:23;12.38;;;11.18;;
18899;SDS011;9582;52.018;6.306;2023-08-06T10:13:50;11.30;;;10.13;;
18899;SDS011;9582;52.018;6.306;2023-08-06T10:16:22;10.38;;;9.38;;
18899;SDS011;9582;52.018;6.306;2023-08-06T10:18:49;10.10;;;9.00;;
18899;SDS011;9582;52.018;6.306;2023-08-06T10:21:17;11.38;;;10.38;;
18899;SDS011;9582;52.018;6.306;2023-08-06T10:23:49;10.65;;;9.57;;
18899;SDS011;9582;52.018;6.306;2023-08-06T10:26:20;12.43;;;11.43;;
18899;SDS011;9582;52.018;6.306;2023-08-06T10:28:47;13.93;;;12.63;;
18899;SDS011;9582;52.018;6.306;2023-08-06T10:31:14;13.48;;;12.27;;
18899;SDS011;9582;52.018;6.306;2023-08-06T10:33:41;14.23;;;12.93;;
18899;SDS011;9582;52.018;6.306;2023-08-06T10:36:08;13.93;;;12.73;;
18899;SDS011;9582;52.018;6.306;2023-08-06T10:38:36;14.70;;;13.40;;
18899;SDS011;9582;52.018;6.306;2023-08-06T10:41:15;16.33;;;14.98;;
18899;SDS011;9582;52.018;6.306;2023-08-06T10:43:43;15.40;;;14.00;;
18899;SDS011;9582;52.018;6.306;2023-08-06T10:46:11;14.73;;;13.43;;
18899;SDS011;9582;52.018;6.306;2023-08-06T10:48:48;14.18;;;12.98;;
18899;SDS011;9582;52.018;6.306;2023-08-06T10:51:15;15.07;;;13.57;;
18899;SDS011;9582;52.018;6.306;2023-08-06T10:53:42;14.85;;;13.55;;
18899;SDS011;9582;52.018;6.306;2023-08-06T10:56:13;11.73;;;10.55;;
18899;SDS011;9582;52.018;6.306;2023-08-06T10:58:40;10.73;;;9.40;;
18899;SDS011;9582;52.018;6.306;2023-08-06T11:01:07;9.15;;;8.25;;
18899;SDS011;9582;52.018;6.306;2023-08-06T11:03:35;8.68;;;7.88;;
18899;SDS011;9582;52.018;6.306;2023-08-06T11:06:02;9.43;;;8.52;;
18899;SDS011;9582;52.018;6.306;2023-08-06T11:08:33;8.75;;;7.95;;
18899;SDS011;9582;52.018;6.306;2023-08-06T11:11:07;9.85;;;8.85;;
18899;SDS011;9582;52.018;6.306;2023-08-06T11:13:36;10.75;;;9.85;;
18899;SDS011;9582;52.018;6.306;2023-08-06T11:16:02;8.43;;;7.72;;
18899;SDS011;9582;52.018;6.306;2023-08-06T11:18:29;8.00;;;7.40;;
18899;SDS011;9582;52.018;6.306;2023-08-06T11:20:59;7.60;;;6.95;;
18899;SDS011;9582;52.018;6.306;2023-08-06T11:23:26;7.07;;;6.45;;
18899;SDS011;9582;52.018;6.306;2023-08-06T11:25:53;5.43;;;4.82;;
18899;SDS011;9582;52.018;6.306;2023-08-06T11:28:20;6.03;;;5.53;;
18899;SDS011;9582;52.018;6.306;2023-08-06T11:30:47;6.90;;;6.30;;
18899;SDS011;9582;52.018;6.306;2023-08-06T11:33:14;7.75;;;7.15;;
18899;SDS011;9582;52.018;6.306;2023-08-06T11:35:40;8.57;;;7.88;;
18899;SDS011;9582;52.018;6.306;2023-08-06T11:38:08;11.77;;;10.77;;
18899;SDS011;9582;52.018;6.306;2023-08-06T11:40:35;15.00;;;13.60;;
18899;SDS011;9582;52.018;6.306;2023-08-06T11:43:02;14.80;;;13.30;;
18899;SDS011;9582;52.018;6.306;2023-08-06T11:45:28;15.63;;;14.13;;
18899;SDS011;9582;52.018;6.306;2023-08-06T11:47:55;15.70;;;14.27;;
18899;SDS011;9582;52.018;6.306;2023-08-06T11:50:22;16.10;;;14.55;;
18899;SDS011;9582;52.018;6.306;2023-08-06T11:52:49;15.40;;;14.00;;
18899;SDS011;9582;52.018;6.306;2023-08-06T11:55:22;15.13;;;13.57;;
18899;SDS011;9582;52.018;6.306;2023-08-06T11:57:49;16.60;;;14.98;;
18899;SDS011;9582;52.018;6.306;2023-08-06T12:00:16;9.40;;;8.50;;
18899;SDS011;9582;52.018;6.306;2023-08-06T12:02:45;7.05;;;6.35;;
18899;SDS011;9582;52.018;6.306;2023-08-06T12:05:14;2.72;;;2.53;;
18899;SDS011;9582;52.018;6.306;2023-08-06T12:07:42;1.52;;;1.42;;
18899;SDS011;9582;52.018;6.306;2023-08-06T12:10:11;0.90;;;0.90;;
18899;SDS011;9582;52.018;6.306;2023-08-06T12:12:40;1.27;;;1.17;;
18899;SDS011;9582;52.018;6.306;2023-08-06T12:15:07;0.70;;;0.70;;
18899;SDS011;9582;52.018;6.306;2023-08-06T12:17:35;1.65;;;0.63;;
18899;SDS011;9582;52.018;6.306;2023-08-06T12:20:03;0.70;;;0.70;;
18899;SDS011;9582;52.018;6.306;2023-08-06T12:22:31;0.60;;;0.60;;
18899;SDS011;9582;52.018;6.306;2023-08-06T12:25:00;0.40;;;0.40;;
18899;SDS011;9582;52.018;6.306;2023-08-06T12:27:27;0.52;;;0.50;;
18899;SDS011;9582;52.018;6.306;2023-08-06T12:29:56;0.70;;;0.63;;
18899;SDS011;9582;52.018;6.306;2023-08-06T12:32:23;0.90;;;0.70;;
18899;SDS011;9582;52.018;6.306;2023-08-06T12:34:49;0.90;;;0.80;;
18899;SDS011;9582;52.018;6.306;2023-08-06T12:37:16;1.65;;;0.80;;
18899;SDS011;9582;52.018;6.306;2023-08-06T12:39:42;1.00;;;0.90;;
18899;SDS011;9582;52.018;6.306;2023-08-06T12:42:09;1.17;;;0.90;;
18899;SDS011;9582;52.018;6.306;2023-08-06T12:44:36;0.90;;;0.80;;
18899;SDS011;9582;52.018;6.306;2023-08-06T12:47:04;1.38;;;1.27;;
18899;SDS011;9582;52.018;6.306;2023-08-06T12:49:30;1.40;;;1.13;;
18899;SDS011;9582;52.018;6.306;2023-08-06T12:51:58;1.23;;;1.00;;
18899;SDS011;9582;52.018;6.306;2023-08-06T12:54:25;1.25;;;0.90;;
18899;SDS011;9582;52.018;6.306;2023-08-06T12:56:51;0.80;;;0.80;;
18899;SDS011;9582;52.018;6.306;2023-08-06T12:59:18;0.70;;;0.70;;
18899;SDS011;9582;52.018;6.306;2023-08-06T13:01:45;0.73;;;0.70;;
18899;SDS011;9582;52.018;6.306;2023-08-06T13:04:14;2.55;;;0.88;;
18899;SDS011;9582;52.018;6.306;2023-08-06T13:06:41;1.05;;;0.85;;
18899;SDS011;9582;52.018;6.306;2023-08-06T13:09:07;1.30;;;1.00;;
18899;SDS011;9582;52.018;6.306;2023-08-06T13:11:35;1.40;;;1.30;;
18899;SDS011;9582;52.018;6.306;2023-08-06T13:14:06;1.10;;;1.10;;
18899;SDS011;9582;52.018;6.306;2023-08-06T13:16:34;1.40;;;1.30;;
18899;SDS011;9582;52.018;6.306;2023-08-06T13:19:01;1.38;;;1.20;;
18899;SDS011;9582;52.018;6.306;2023-08-06T13:21:32;1.50;;;1.10;;
18899;SDS011;9582;52.018;6.306;2023-08-06T13:24:00;0.73;;;0.73;;
18899;SDS011;9582;52.018;6.306;2023-08-06T13:26:28;1.83;;;1.50;;
18899;SDS011;9582;52.018;6.306;2023-08-06T13:28:54;1.65;;;1.27;;
18899;SDS011;9582;52.018;6.306;2023-08-06T13:31:21;1.25;;;1.15;;
18899;SDS011;9582;52.018;6.306;2023-08-06T13:33:48;1.23;;;0.90;;
18899;SDS011;9582;52.018;6.306;2023-08-06T13:36:15;3.03;;;1.50;;
18899;SDS011;9582;52.018;6.306;2023-08-06T13:38:43;1.63;;;1.50;;
18899;SDS011;9582;52.018;6.306;2023-08-06T13:41:09;1.90;;;1.70;;
18899;SDS011;9582;52.018;6.306;2023-08-06T13:43:36;2.05;;;1.85;;
18899;SDS011;9582;52.018;6.306;2023-08-06T13:46:03;2.05;;;1.90;;
18899;SDS011;9582;52.018;6.306;2023-08-06T13:48:29;3.67;;;2.25;;
18899;SDS011;9582;52.018;6.306;2023-08-06T13:50:55;3.03;;;2.17;;
18899;SDS011;9582;52.018;6.306;2023-08-06T13:53:22;2.97;;;2.25;;
18899;SDS011;9582;52.018;6.306;2023-08-06T13:55:51;2.53;;;2.30;;
18899;SDS011;9582;52.018;6.306;2023-08-06T13:58:18;3.55;;;2.78;;
18899;SDS011;9582;52.018;6.306;2023-08-06T14:00:44;5.10;;;2.60;;
18899;SDS011;9582;52.018;6.306;2023-08-06T14:03:11;4.07;;;3.03;;
18899;SDS011;9582;52.018;6.306;2023-08-06T14:05:37;3.65;;;2.70;;
18899;SDS011;9582;52.018;6.306;2023-08-06T14:08:04;4.82;;;3.05;;
18899;SDS011;9582;52.018;6.306;2023-08-06T14:10:30;5.05;;;2.88;;
18899;SDS011;9582;52.018;6.306;2023-08-06T14:12:58;3.15;;;2.78;;
18899;SDS011;9582;52.018;6.306;2023-08-06T14:15:25;4.05;;;3.20;;
18899;SDS011;9582;52.018;6.306;2023-08-06T14:17:52;4.50;;;3.08;;
18899;SDS011;9582;52.018;6.306;2023-08-06T14:20:18;3.42;;;2.85;;
18899;SDS011;9582;52.018;6.306;2023-08-06T14:22:45;4.45;;;3.10;;
18899;SDS011;9582;52.018;6.306;2023-08-06T14:25:11;4.38;;;3.10;;
18899;SDS011;9582;52.018;6.306;2023-08-06T14:27:38;4.65;;;3.40;;
18899;SDS011;9582;52.018;6.306;2023-08-06T14:30:06;4.10;;;2.70;;
18899;SDS011;9582;52.018;6.306;2023-08-06T14:32:33;5.55;;;3.55;;
18899;SDS011;9582;52.018;6.306;2023-08-06T14:35:00;4.85;;;3.75;;
18899;SDS011;9582;52.018;6.306;2023-08-06T14:37:26;4.15;;;3.42;;
18899;SDS011;9582;52.018;6.306;2023-08-06T14:39:53;3.97;;;3.55;;
18899;SDS011;9582;52.018;6.306;2023-08-06T14:42:19;9.20;;;3.88;;
18899;SDS011;9582;52.018;6.306;2023-08-06T14:44:46;4.95;;;3.72;;